Time;durP1;ratioP1;P1;durP2;ratioP2;P2;SDS_P1;SDS_P2;PMS_P1;PMS_P2;Temp;Humidity;BMP_temperature;BMP_pressure;BME280_temperature;BME280_humidity;BME280_pressure;Samples;Min_cycle;Max_cycle;Signal;HPM_P1;HPM_P2
2023/06/26 00:01:32;;;;;;;9.70;5.20;;;;;;;17.83;76.68;100550.67;219401;1266;141497;-85
2023/06/26 00:06:32;;;;;;;8.70;5.20;;;;;;;17.76;77.20;100547.84;219948;1264;139083;-85
2023/06/26 00:11:33;;;;;;;10.60;4.90;;;;;;;17.70;77.70;100542.84;219413;1266;141464;-85
2023/06/26 00:16:33;;;;;;;9.90;5.30;;;;;;;17.65;78.04;100542.07;220051;1264;139848;-85
2023/06/26 00:21:34;;;;;;;9.70;5.10;;;;;;;17.61;78.44;100538.63;219401;1264;140857;-85
2023/06/26 00:26:34;;;;;;;10.50;4.70;;;;;;;17.57;78.75;100541.38;219937;1265;139344;-85
2023/06/26 00:31:38;;;;;;;8.70;5.10;;;;;;;17.53;79.38;100541.14;219537;1264;141764;-85
2023/06/26 00:36:38;;;;;;;9.70;5.00;;;;;;;17.48;78.56;100533.50;220322;1267;139359;-85
2023/06/26 00:41:39;;;;;;;9.40;5.30;;;;;;;17.45;78.38;100533.06;220000;1264;140608;-85
2023/06/26 00:46:39;;;;;;;8.70;5.00;;;;;;;17.41;79.34;100529.73;220543;1267;139489;-85
2023/06/26 00:51:39;;;;;;;10.00;5.60;;;;;;;17.36;79.10;100529.76;220016;1265;141413;-84
2023/06/26 00:56:40;;;;;;;9.30;4.80;;;;;;;17.31;78.87;100528.72;220230;1266;140173;-84
2023/06/26 01:01:41;;;;;;;11.60;5.50;;;;;;;17.26;79.17;100526.89;219344;1264;140803;-85
2023/06/26 01:06:41;;;;;;;12.10;6.20;;;;;;;17.20;78.64;100526.96;219849;1264;139669;-85
2023/06/26 01:11:42;;;;;;;9.50;5.40;;;;;;;17.16;78.76;100522.33;219340;1264;140789;-84
2023/06/26 01:16:47;;;;;;;11.50;5.90;;;;;;;17.11;79.72;100522.00;219835;1268;139301;-84
2023/06/26 01:21:50;;;;;;;11.10;6.00;;;;;;;17.04;80.63;100520.83;219036;1264;142699;-84
2023/06/26 01:26:51;;;;;;;15.90;7.20;;;;;;;16.97;81.10;100518.55;219784;1264;139036;-84
2023/06/26 01:31:52;;;;;;;13.30;7.10;;;;;;;16.89;82.03;100514.53;219319;1267;141163;-84
2023/06/26 01:36:52;;;;;;;11.80;7.00;;;;;;;16.79;82.67;100515.36;219716;1267;140373;-84
2023/06/26 01:41:53;;;;;;;12.70;7.00;;;;;;;16.71;83.61;100512.54;219095;1267;141760;-84
2023/06/26 01:47:00;;;;;;;11.60;6.70;;;;;;;16.63;83.58;100517.31;219661;1267;139524;-85
2023/06/26 01:52:36;;;;;;;12.40;7.70;;;;;;;16.53;84.79;100516.89;219303;1267;142427;-85
2023/06/26 01:57:39;;;;;;;11.80;7.00;;;;;;;16.38;85.53;100505.29;219608;1266;139543;-84
2023/06/26 02:02:42;;;;;;;11.20;7.10;;;;;;;16.30;85.68;100497.60;219353;1267;141096;-85
2023/06/26 02:07:43;;;;;;;15.60;8.60;;;;;;;16.25;85.98;100493.52;219994;1267;97982;-85
2023/06/26 02:12:44;;;;;;;11.90;7.30;;;;;;;16.18;86.34;100491.61;219346;1264;140388;-84
2023/06/26 02:17:47;;;;;;;12.10;7.10;;;;;;;16.11;86.62;100484.39;219591;1267;140435;-84
2023/06/26 02:22:48;;;;;;;11.80;6.30;;;;;;;16.06;86.65;100488.25;219509;1263;141163;-83
2023/06/26 02:27:48;;;;;;;13.60;7.70;;;;;;;16.00;86.61;100483.55;219867;1264;139856;-84
2023/06/26 02:32:49;;;;;;;12.90;7.40;;;;;;;15.95;86.37;100481.30;219348;1264;140668;-83
2023/06/26 02:37:50;;;;;;;11.40;7.10;;;;;;;15.88;86.94;100486.76;220077;1267;97951;-84
2023/06/26 02:42:50;;;;;;;14.50;8.00;;;;;;;15.84;86.94;100486.88;219460;1265;140349;-84
2023/06/26 02:47:51;;;;;;;9.60;5.50;;;;;;;15.78;87.38;100488.05;220331;1267;139361;-85
2023/06/26 02:52:52;;;;;;;10.90;6.30;;;;;;;15.71;87.54;100480.50;219980;1267;140204;-84
2023/06/26 02:57:52;;;;;;;12.50;6.30;;;;;;;15.68;86.96;100481.08;220193;1265;139417;-84
2023/06/26 03:02:53;;;;;;;10.80;6.40;;;;;;;15.65;87.26;100476.99;219582;1264;140754;-84
2023/06/26 03:07:53;;;;;;;11.10;6.50;;;;;;;15.59;88.02;100479.97;220137;1266;97961;-84
2023/06/26 03:12:53;;;;;;;10.30;6.30;;;;;;;15.54;88.17;100479.30;220004;1266;140392;-84
2023/06/26 03:17:54;;;;;;;10.20;6.30;;;;;;;15.55;88.40;100477.15;220679;1264;139507;-83
2023/06/26 03:22:54;;;;;;;9.40;5.40;;;;;;;15.54;88.42;100477.31;219995;1266;140993;-84
2023/06/26 03:27:54;;;;;;;12.30;5.90;;;;;;;15.53;89.00;100483.27;219975;1266;139449;-84
2023/06/26 03:32:56;;;;;;;11.70;6.20;;;;;;;15.54;89.58;100476.99;219383;1265;140537;-84
2023/06/26 03:37:57;;;;;;;10.60;6.20;;;;;;;15.56;90.15;100477.70;220006;1266;98388;-84
2023/06/26 03:42:58;;;;;;;12.40;5.80;;;;;;;15.58;90.29;100476.73;219611;1266;140354;-84
2023/06/26 03:47:58;;;;;;;11.70;6.50;;;;;;;15.62;90.92;100476.39;219995;1266;139613;-85
2023/06/26 03:52:59;;;;;;;11.40;6.90;;;;;;;15.67;90.88;100475.46;219369;1266;141496;-86
2023/06/26 03:57:59;;;;;;;12.50;6.40;;;;;;;15.72;90.67;100476.84;219973;1267;139560;-85
2023/06/26 04:03:00;;;;;;;10.90;6.10;;;;;;;15.79;90.70;100470.83;219381;1266;141461;-86
2023/06/26 04:08:00;;;;;;;10.00;6.10;;;;;;;15.87;91.64;100477.41;220055;1266;105387;-86
2023/06/26 04:13:00;;;;;;;10.90;6.80;;;;;;;15.96;92.67;100477.56;219337;1267;141378;-86
2023/06/26 04:18:01;;;;;;;11.30;6.20;;;;;;;16.04;92.76;100478.12;219802;1267;139699;-85
2023/06/26 04:23:01;;;;;;;13.20;6.60;;;;;;;16.12;92.71;100482.16;219436;1267;141150;-85
2023/06/26 04:28:01;;;;;;;13.00;6.90;;;;;;;16.24;92.87;100479.65;219942;1267;139576;-86
2023/06/26 04:33:02;;;;;;;14.00;6.60;;;;;;;16.35;92.34;100472.94;219565;1267;141269;-86
2023/06/26 04:38:02;;;;;;;14.00;6.00;;;;;;;16.48;92.74;100471.86;220174;1265;98040;-86
2023/06/26 04:43:03;;;;;;;13.20;6.70;;;;;;;16.59;92.67;100472.98;219342;1267;141264;-85
2023/06/26 04:48:04;;;;;;;12.00;6.70;;;;;;;16.72;92.59;100468.84;219678;1268;139512;-86
2023/06/26 04:53:04;;;;;;;10.20;6.30;;;;;;;16.85;92.18;100470.98;219265;1266;141604;-85
2023/06/26 04:58:04;;;;;;;11.90;6.40;;;;;;;16.97;91.73;100476.04;219592;1263;139125;-85
2023/06/26 05:03:05;;;;;;;10.30;6.20;;;;;;;17.16;91.28;100476.41;219566;1266;141134;-85
2023/06/26 05:08:15;;;;;;;10.10;5.50;;;;;;;17.32;88.26;100472.44;220134;1266;98179;-85
2023/06/26 05:13:17;;;;;;;10.90;6.40;;;;;;;17.59;87.23;100471.94;219541;1268;140665;-86
2023/06/26 05:18:19;;;;;;;13.10;5.50;;;;;;;17.96;86.28;100466.43;220040;1267;140158;-86
2023/06/26 05:23:21;;;;;;;11.80;6.60;;;;;;;18.43;85.67;100469.27;219334;1267;141120;-86
2023/06/26 05:28:24;;;;;;;12.00;6.20;;;;;;;19.07;84.93;100473.01;219846;1266;139962;-87
2023/06/26 05:33:26;;;;;;;10.50;5.80;;;;;;;19.81;81.55;100471.22;219640;1268;141341;-86
2023/06/26 05:38:27;;;;;;;11.10;6.00;;;;;;;20.64;81.36;100466.38;220188;1267;139527;-85
2023/06/26 05:43:27;;;;;;;11.30;5.50;;;;;;;21.60;80.19;100463.77;219713;1265;142339;-88
2023/06/26 05:48:28;;;;;;;12.80;6.60;;;;;;;22.61;77.05;100456.04;219980;1268;139511;-89
2023/06/26 05:53:29;;;;;;;11.00;6.10;;;;;;;23.57;71.92;100457.42;219426;1266;140732;-90
2023/06/26 05:58:30;;;;;;;10.10;5.50;;;;;;;24.53;68.78;100458.96;220110;1265;140343;-87
2023/06/26 06:03:30;;;;;;;11.60;6.00;;;;;;;25.26;67.08;100453.25;219686;1265;140778;-88
2023/06/26 06:08:31;;;;;;;17.70;7.00;;;;;;;25.95;64.03;100449.89;220229;1268;139307;-86
2023/06/26 06:13:31;;;;;;;8.90;5.00;;;;;;;26.55;62.32;100447.11;219797;1266;142387;-87
2023/06/26 06:18:32;;;;;;;12.40;6.80;;;;;;;27.17;60.40;100448.16;220308;1267;138530;-89
2023/06/26 06:23:32;;;;;;;12.20;5.70;;;;;;;27.84;57.06;100446.04;219754;1266;139951;-87
2023/06/26 06:28:32;;;;;;;13.90;5.70;;;;;;;28.42;53.48;100445.52;220214;1268;139189;-87
2023/06/26 06:33:34;;;;;;;10.50;5.40;;;;;;;28.94;52.63;100446.68;219708;1267;140564;-87
2023/06/26 06:38:34;;;;;;;12.60;5.50;;;;;;;29.34;51.40;100444.13;219904;1266;336940;-86
2023/06/26 06:43:34;;;;;;;8.60;4.80;;;;;;;29.75;50.58;100440.23;219702;1267;141038;-86
2023/06/26 06:48:35;;;;;;;9.30;5.10;;;;;;;30.22;50.20;100434.81;219917;1268;139271;-86
2023/06/26 06:53:35;;;;;;;10.80;4.10;;;;;;;30.77;46.87;100435.27;219379;1264;140788;-85
2023/06/26 06:58:35;;;;;;;9.00;4.60;;;;;;;31.05;46.13;100431.81;220019;1267;139333;-87
2023/06/26 07:03:36;;;;;;;8.30;4.40;;;;;;;31.58;42.77;100429.23;219391;1264;142476;-87
2023/06/26 07:08:36;;;;;;;10.50;4.50;;;;;;;32.01;42.15;100426.00;220230;1268;139351;-88
2023/06/26 07:13:37;;;;;;;8.40;3.80;;;;;;;32.30;41.16;100421.52;219566;1266;139921;-87
2023/06/26 07:18:38;;;;;;;7.40;4.40;;;;;;;32.48;41.03;100428.52;220018;1267;138449;-88
2023/06/26 07:23:39;;;;;;;7.70;4.20;;;;;;;32.59;41.09;100428.76;219405;1264;142188;-88
2023/06/26 07:28:39;;;;;;;6.80;4.00;;;;;;;33.11;41.09;100423.96;220063;1267;138156;-87
2023/06/26 07:33:40;;;;;;;6.90;4.30;;;;;;;33.57;39.61;100419.33;219509;1266;140875;-88
2023/06/26 07:38:40;;;;;;;6.50;4.20;;;;;;;33.69;38.57;100413.06;219979;1264;138721;-86
2023/06/26 07:43:40;;;;;;;8.70;4.30;;;;;;;33.96;38.33;100411.66;219331;1266;140628;-87
2023/06/26 07:48:41;;;;;;;7.40;4.30;;;;;;;34.07;38.41;100404.50;219791;1267;138650;-87
2023/06/26 07:53:42;;;;;;;5.50;3.50;;;;;;;34.21;37.59;100396.73;219370;1268;139698;-90
2023/06/26 07:58:42;;;;;;;6.70;3.80;;;;;;;34.55;36.99;100398.48;220105;1266;138710;-89
2023/06/26 08:03:42;;;;;;;7.10;4.10;;;;;;;35.02;36.69;100399.70;219493;1264;140123;-89
2023/06/26 08:08:43;;;;;;;8.10;4.60;;;;;;;35.45;34.04;100398.11;220858;1268;138631;-90
2023/06/26 08:13:43;;;;;;;7.30;3.80;;;;;;;35.45;33.59;100399.77;220418;1264;140930;-90
2023/06/26 08:18:43;;;;;;;7.70;4.30;;;;;;;35.83;33.65;100395.50;220970;1267;138044;-88
2023/06/26 08:23:44;;;;;;;6.80;4.30;;;;;;;36.18;33.10;100396.40;220342;1267;140258;-90
2023/06/26 08:28:44;;;;;;;7.20;4.30;;;;;;;36.38;32.76;100390.17;220917;1267;138668;-91
2023/06/26 08:33:45;;;;;;;6.60;4.10;;;;;;;36.43;31.36;100386.23;220429;1265;140192;-91
2023/06/26 08:38:47;;;;;;;6.50;4.30;;;;;;;36.27;30.93;100385.92;220973;1268;138489;-87
2023/06/26 08:43:50;;;;;;;6.60;4.30;;;;;;;35.87;31.46;100379.92;220479;1268;141100;-90
2023/06/26 08:48:56;;;;;;;6.90;3.90;;;;;;;36.21;32.92;100375.48;220162;1264;140413;-90
2023/06/26 08:54:01;;;;;;;8.50;3.60;;;;;;;36.86;33.08;100374.56;220287;1267;138800;-90
2023/06/26 08:59:02;;;;;;;6.70;4.30;;;;;;;37.35;32.06;100375.13;219768;1264;140296;-88
2023/06/26 09:04:03;;;;;;;7.60;4.40;;;;;;;37.53;31.71;100368.81;220183;1265;138762;-89
2023/06/26 09:09:03;;;;;;;9.00;4.50;;;;;;;37.85;31.51;100367.41;219903;1264;141602;-89
2023/06/26 09:14:07;;;;;;;8.90;4.70;;;;;;;38.35;31.29;100362.95;220183;1264;99193;-88
2023/06/26 09:19:11;;;;;;;;;;;;;;;38.79;31.14;100359.02;219532;1265;139945;-88
2023/06/26 09:24:12;;;;;;;6.50;4.20;;;;;;;39.09;30.05;100353.29;220018;1268;124707;-90
2023/06/26 09:29:13;;;;;;;7.60;4.80;;;;;;;39.17;29.46;100347.33;219549;1268;139904;-88
2023/06/26 09:34:14;;;;;;;7.80;4.10;;;;;;;39.44;29.81;100343.95;219937;1264;138187;-84
2023/06/26 09:39:15;;;;;;;6.20;4.10;;;;;;;39.21;27.18;100341.06;219796;1264;140289;-87
2023/06/26 09:44:15;;;;;;;7.00;4.60;;;;;;;39.01;27.77;100344.30;220233;1264;98840;-91
2023/06/26 09:49:15;;;;;;;7.70;3.90;;;;;;;39.42;28.88;100341.65;219391;1266;140091;-86
2023/06/26 09:54:17;;;;;;;9.70;4.00;;;;;;;39.57;27.55;100333.80;219885;1268;138828;-90
2023/06/26 09:59:18;;;;;;;6.70;3.90;;;;;;;39.17;26.83;100324.19;219553;1268;140398;-87
2023/06/26 10:04:18;;;;;;;7.70;4.20;;;;;;;39.01;28.95;100317.27;220017;1268;138752;-85
2023/06/26 10:09:20;;;;;;;6.30;4.20;;;;;;;39.90;29.36;100315.96;219430;1269;140979;-88
2023/06/26 10:14:22;;;;;;;5.70;3.90;;;;;;;40.38;27.74;100312.27;220391;1267;97997;-87
2023/06/26 10:19:26;;;;;;;6.70;4.40;;;;;;;40.54;26.96;100311.08;219275;1268;139765;-87
2023/06/26 10:24:29;;;;;;;6.80;4.10;;;;;;;40.74;27.38;100308.24;220029;1268;138436;-87
2023/06/26 10:29:32;;;;;;;6.30;4.30;;;;;;;40.65;26.89;100306.72;219510;1268;140096;-89
2023/06/26 10:34:33;;;;;;;7.90;4.60;;;;;;;40.45;24.88;100301.39;220230;1264;138606;-87
2023/06/26 10:39:55;;;;;;;6.20;3.90;;;;;;;39.64;25.91;100293.00;219691;1267;139937;-87
2023/06/26 10:45:16;;;;;;;6.50;4.20;;;;;;;39.88;26.88;100291.42;219998;1268;138918;-86
2023/06/26 10:50:19;;;;;;;7.50;4.50;;;;;;;40.27;27.07;100286.29;219605;1264;140336;-86
2023/06/26 10:55:27;;;;;;;6.40;4.10;;;;;;;40.12;26.19;100281.06;220075;1264;137786;-87
2023/06/26 11:00:28;;;;;;;8.20;3.90;;;;;;;40.40;28.25;100282.47;219554;1267;140804;-88
2023/06/26 11:05:32;;;;;;;6.10;4.10;;;;;;;40.73;26.83;100272.72;220095;1267;138939;-87
2023/06/26 11:10:53;;;;;;;7.90;4.30;;;;;;;40.76;27.14;100272.80;219301;1267;140627;-87
2023/06/26 11:15:56;;;;;;;6.00;4.20;;;;;;;40.78;27.14;100268.90;220332;1267;138782;-89
2023/06/26 11:21:05;;;;;;;6.10;3.80;;;;;;;41.11;26.99;100261.39;220183;1264;140581;-88
2023/06/26 11:26:18;;;;;;;6.70;4.30;;;;;;;41.47;25.51;100259.02;220188;1267;97940;-85
2023/06/26 11:31:32;;;;;;;6.10;3.90;;;;;;;40.93;25.65;100249.00;219638;1267;138207;-88
2023/06/26 11:36:36;;;;;;;7.50;4.00;;;;;;;40.42;27.21;100241.25;220096;1267;138406;-87
2023/06/26 11:41:39;;;;;;;7.60;4.20;;;;;;;40.78;27.20;100230.95;219431;1267;139507;-87
2023/06/26 11:46:39;;;;;;;7.40;4.60;;;;;;;40.93;24.86;100228.09;220003;1264;138602;-90
2023/06/26 11:51:40;;;;;;;5.80;4.20;;;;;;;40.63;25.83;100220.74;219468;1264;140318;-87
2023/06/26 11:56:41;;;;;;;51.80;7.00;;;;;;;40.19;26.77;100218.08;219906;1264;139351;-88
2023/06/26 12:01:45;;;;;;;8.10;3.80;;;;;;;39.73;25.80;100213.65;219742;1264;140499;-89
2023/06/26 12:06:49;;;;;;;10.10;4.20;;;;;;;39.65;27.14;100208.20;219798;1264;139393;-88
2023/06/26 12:11:53;;;;;;;6.50;3.90;;;;;;;39.54;25.89;100203.19;219679;1267;142512;-89
2023/06/26 12:16:54;;;;;;;7.10;4.10;;;;;;;38.93;25.42;100203.21;220104;1264;138791;-89
2023/06/26 12:21:56;;;;;;;6.20;3.80;;;;;;;38.54;27.37;100191.39;219600;1267;140700;-88
2023/06/26 12:26:56;;;;;;;6.20;3.80;;;;;;;38.85;27.40;100184.67;220212;1264;138731;-89
2023/06/26 12:31:57;;;;;;;10.10;4.10;;;;;;;38.78;27.59;100179.65;219785;1264;140283;-90
2023/06/26 12:37:08;;;;;;;6.90;4.10;;;;;;;38.79;26.94;100181.80;220181;1264;138272;-88
2023/06/26 12:42:17;;;;;;;6.40;4.10;;;;;;;38.62;27.81;100174.16;219347;1263;139471;-90
2023/06/26 12:47:28;;;;;;;5.30;3.60;;;;;;;38.55;27.65;100171.59;219894;1267;138338;-89
2023/06/26 12:52:28;;;;;;;7.00;4.20;;;;;;;38.20;27.48;100170.73;219543;1267;139026;-90
2023/06/26 12:57:29;;;;;;;6.80;4.10;;;;;;;37.44;27.58;100166.43;220069;1264;138694;-85
2023/06/26 13:02:29;;;;;;;6.30;4.00;;;;;;;37.04;28.60;100160.65;219611;1263;139888;-90
2023/06/26 13:07:30;;;;;;;6.50;3.90;;;;;;;36.67;28.89;100169.52;219994;1267;99194;-89
2023/06/26 13:12:30;;;;;;;6.10;3.90;;;;;;;36.47;30.30;100166.89;219690;1267;140200;-89
2023/06/26 13:17:31;;;;;;;7.10;4.30;;;;;;;36.29;30.06;100167.45;220082;1267;138629;-92
2023/06/26 13:22:31;;;;;;;7.80;4.60;;;;;;;35.74;30.64;100160.50;219532;1264;139832;-89
2023/06/26 13:27:32;;;;;;;8.80;4.50;;;;;;;35.04;31.02;100146.67;220116;1267;138713;-88
2023/06/26 13:32:32;;;;;;;7.60;4.30;;;;;;;34.37;32.36;100147.45;219955;1267;139173;-87
2023/06/26 13:37:34;;;;;;;10.30;5.00;;;;;;;33.90;32.92;100140.17;220504;1265;97956;-87
2023/06/26 13:42:36;;;;;;;8.80;5.00;;;;;;;33.34;33.17;100125.41;220040;1267;140591;-87
2023/06/26 13:47:40;;;;;;;8.80;4.80;;;;;;;32.76;34.67;100113.98;220253;1264;138450;-90
2023/06/26 13:52:40;;;;;;;7.70;4.70;;;;;;;32.62;35.60;100108.30;219696;1263;141584;-90
2023/06/26 13:57:41;;;;;;;17.20;5.20;;;;;;;32.46;35.74;100101.08;219864;1267;138652;-88
2023/06/26 14:02:42;;;;;;;7.80;4.80;;;;;;;32.18;35.95;100094.31;219502;1264;140275;-89
2023/06/26 14:07:43;;;;;;;8.00;4.60;;;;;;;32.13;36.32;100083.89;220226;1264;97972;-90
2023/06/26 14:12:44;;;;;;;8.30;4.80;;;;;;;32.16;36.83;100076.36;219514;1267;139772;-90
2023/06/26 14:17:44;;;;;;;8.90;5.40;;;;;;;32.17;37.58;100080.55;220157;1264;138195;-91
2023/06/26 14:22:45;;;;;;;11.20;5.30;;;;;;;32.42;37.58;100065.32;219300;1267;139716;-90
2023/06/26 14:27:45;;;;;;;9.60;5.70;;;;;;;32.19;36.74;100064.06;219977;1267;138744;-90
2023/06/26 14:32:46;;;;;;;11.00;4.90;;;;;;;32.03;37.14;100054.76;219525;1264;140364;-91
2023/06/26 14:37:48;;;;;;;9.40;5.30;;;;;;;32.27;37.43;100043.89;220159;1264;97965;-87
2023/06/26 14:42:49;;;;;;;8.40;5.20;;;;;;;32.33;36.53;100037.93;219554;1267;140452;-88
2023/06/26 14:47:49;;;;;;;8.60;5.20;;;;;;;32.30;36.46;100028.02;219834;1264;138549;-87
2023/06/26 14:52:50;;;;;;;8.40;5.20;;;;;;;32.24;35.76;100022.27;219461;1267;139334;-91
2023/06/26 14:57:50;;;;;;;8.70;5.60;;;;;;;32.22;36.77;100015.27;220039;1267;139337;-87
2023/06/26 15:02:53;;;;;;;9.10;5.00;;;;;;;32.32;36.30;100009.63;219432;1268;140110;-87
2023/06/26 15:07:54;;;;;;;7.60;4.40;;;;;;;32.28;36.83;99995.89;220046;1264;97929;-88
2023/06/26 15:12:54;;;;;;;7.80;5.30;;;;;;;32.32;37.35;99990.83;219466;1264;138908;-89
2023/06/26 15:17:54;;;;;;;8.20;4.80;;;;;;;32.29;37.37;99980.43;220028;1267;138540;-87
2023/06/26 15:22:56;;;;;;;8.90;6.00;;;;;;;32.07;37.21;99969.91;219536;1266;140587;-88
2023/06/26 15:27:56;;;;;;;8.50;6.00;;;;;;;32.10;37.31;99969.20;219948;1264;138074;-88
2023/06/26 15:32:57;;;;;;;11.00;6.40;;;;;;;32.21;36.68;99959.59;219475;1263;140086;-86
2023/06/26 15:37:57;;;;;;;9.80;6.00;;;;;;;32.23;36.73;99958.59;219990;1267;97959;-88
2023/06/26 15:42:58;;;;;;;9.80;5.80;;;;;;;32.16;36.99;99962.09;219301;1267;139712;-90
2023/06/26 15:47:58;;;;;;;9.60;6.00;;;;;;;32.10;36.86;99964.29;220000;1263;137953;-87
2023/06/26 15:52:59;;;;;;;9.60;6.20;;;;;;;32.05;37.20;99957.77;219353;1267;140620;-87
2023/06/26 15:58:00;;;;;;;9.30;6.10;;;;;;;31.99;37.45;99959.50;219767;1264;138165;-87
2023/06/26 16:03:00;;;;;;;11.70;6.50;;;;;;;31.88;37.38;99955.17;219177;1264;139724;-90
2023/06/26 16:08:01;;;;;;;9.80;5.80;;;;;;;31.50;37.79;99945.36;219960;1264;98063;-89
2023/06/26 16:13:01;;;;;;;10.50;6.10;;;;;;;31.25;38.21;99941.34;219382;1263;139353;-86
2023/06/26 16:18:02;;;;;;;11.30;6.30;;;;;;;30.80;38.52;99938.43;219909;1267;138819;-85
2023/06/26 16:23:02;;;;;;;9.10;5.70;;;;;;;30.47;39.25;99936.90;219318;1264;140110;-88
2023/06/26 16:28:03;;;;;;;9.50;5.90;;;;;;;30.26;39.88;99934.48;219961;1263;138258;-87
2023/06/26 16:33:03;;;;;;;9.80;5.90;;;;;;;30.07;40.22;99928.61;219358;1264;141531;-89
2023/06/26 16:38:06;;;;;;;7.90;5.40;;;;;;;29.92;40.46;99917.42;220063;1264;97953;-91
2023/06/26 16:43:06;;;;;;;7.90;4.90;;;;;;;29.82;41.92;99911.95;219480;1264;139829;-88
2023/06/26 16:48:07;;;;;;;9.20;6.30;;;;;;;29.76;41.74;99905.46;219929;1264;137859;-88
2023/06/26 16:53:07;;;;;;;9.50;5.80;;;;;;;29.69;41.65;99890.02;219353;1264;139917;-87
2023/06/26 16:58:08;;;;;;;9.50;6.00;;;;;;;29.61;41.81;99887.35;220055;1267;138099;-85
2023/06/26 17:03:08;;;;;;;9.70;6.00;;;;;;;29.54;41.87;99889.78;219579;1267;138723;-86
2023/06/26 17:08:10;;;;;;;8.80;5.90;;;;;;;29.44;42.19;99886.39;220392;1264;97967;-86
2023/06/26 17:13:10;;;;;;;8.80;5.70;;;;;;;29.32;42.32;99891.30;219739;1267;140177;-85
2023/06/26 17:18:11;;;;;;;11.00;6.50;;;;;;;29.23;42.77;99890.75;220349;1264;137950;-88
2023/06/26 17:23:11;;;;;;;9.70;5.90;;;;;;;29.10;43.15;99886.33;219607;1265;139560;-86
2023/06/26 17:28:12;;;;;;;9.50;5.90;;;;;;;29.00;43.72;99874.23;220077;1264;138090;-86
2023/06/26 17:33:12;;;;;;;8.50;5.50;;;;;;;28.94;43.82;99869.80;219362;1266;141050;-86
2023/06/26 17:38:13;;;;;;;9.90;5.80;;;;;;;28.86;44.16;99864.23;220018;1264;98030;-86
2023/06/26 17:43:13;;;;;;;10.10;5.80;;;;;;;28.73;44.37;99862.05;219528;1265;139622;-88
2023/06/26 17:48:14;;;;;;;10.30;6.30;;;;;;;28.64;44.71;99855.77;220329;1267;138644;-88
2023/06/26 17:53:14;;;;;;;10.40;6.20;;;;;;;28.49;44.85;99860.64;219477;1264;140237;-86
2023/06/26 17:58:14;;;;;;;9.60;6.00;;;;;;;28.33;45.19;99858.70;220343;1264;138091;-87
2023/06/26 18:03:15;;;;;;;9.60;5.90;;;;;;;28.20;45.45;99848.27;219605;1263;140691;-87
2023/06/26 18:08:15;;;;;;;10.30;5.80;;;;;;;28.07;45.76;99836.66;220197;1267;97870;-89
2023/06/26 18:13:15;;;;;;;9.20;5.60;;;;;;;27.95;46.35;99829.02;219502;1264;140080;-88
2023/06/26 18:18:16;;;;;;;11.20;5.70;;;;;;;27.83;46.57;99825.89;220070;1264;137797;-87
2023/06/26 18:23:16;;;;;;;11.80;6.10;;;;;;;27.74;47.01;99819.29;219523;1264;140112;-86
2023/06/26 18:28:17;;;;;;;10.00;6.00;;;;;;;27.61;47.11;99811.52;220028;1267;138721;-88
2023/06/26 18:33:17;;;;;;;11.40;6.40;;;;;;;27.51;47.64;99811.79;219881;1266;140854;-87
2023/06/26 18:38:18;;;;;;;11.20;5.50;;;;;;;27.41;48.02;99813.75;220320;1264;194645;-87
2023/06/26 18:43:21;;;;;;;12.20;6.50;;;;;;;27.33;48.39;99841.20;219625;1264;140496;-86
2023/06/26 18:48:21;;;;;;;11.80;6.40;;;;;;;27.17;51.71;99930.68;220052;1267;138371;-84
2023/06/26 18:53:22;;;;;;;13.80;6.00;;;;;;;26.71;56.41;99936.81;219750;1264;141038;-86
2023/06/26 18:58:22;;;;;;;11.90;5.90;;;;;;;26.14;58.62;99970.98;220209;1264;138337;-82
2023/06/26 19:03:23;;;;;;;9.90;6.10;;;;;;;25.73;61.77;100001.78;219478;1264;140878;-80
2023/06/26 19:08:23;;;;;;;11.70;5.90;;;;;;;25.27;64.73;100018.91;220115;1265;98050;-88
2023/06/26 19:13:24;;;;;;;12.30;6.60;;;;;;;24.85;66.71;100015.73;219364;1264;139739;-89
2023/06/26 19:18:25;;;;;;;9.60;5.40;;;;;;;24.50;68.04;100003.59;219864;1264;138161;-87
2023/06/26 19:23:25;;;;;;;9.90;5.10;;;;;;;24.20;68.91;99990.46;219304;1264;141000;-89
2023/06/26 19:28:26;;;;;;;8.60;4.90;;;;;;;23.96;69.67;99967.07;220067;1264;138036;-90
2023/06/26 19:33:27;;;;;;;8.40;5.10;;;;;;;23.77;70.53;99955.15;219437;1264;140031;-90
2023/06/26 19:38:27;;;;;;;9.50;5.50;;;;;;;23.57;71.33;99956.50;219986;1267;108476;-88
2023/06/26 19:43:28;;;;;;;10.30;5.40;;;;;;;23.39;72.08;99958.59;219810;1264;139696;-88
2023/06/26 19:48:29;;;;;;;10.30;5.20;;;;;;;23.25;73.00;99976.58;220180;1263;138841;-87
2023/06/26 19:53:30;;;;;;;9.40;4.60;;;;;;;23.08;73.59;99975.52;219769;1263;140988;-87
2023/06/26 19:58:31;;;;;;;10.10;4.90;;;;;;;22.95;74.02;99976.21;220049;1267;138833;-85
2023/06/26 20:03:31;;;;;;;9.50;4.90;;;;;;;22.85;74.28;99990.64;219554;1264;140716;-85
2023/06/26 20:08:32;;;;;;;10.20;5.00;;;;;;;22.73;75.73;100017.24;219995;1264;139636;-86
2023/06/26 20:13:32;;;;;;;9.10;4.70;;;;;;;22.55;75.81;100017.25;219420;1265;141431;-86
2023/06/26 20:18:33;;;;;;;8.80;5.60;;;;;;;22.41;77.27;100033.65;219980;1265;138835;-86
2023/06/26 20:23:33;;;;;;;9.20;5.50;;;;;;;22.25;77.57;100042.31;219513;1265;142058;-86
2023/06/26 20:28:34;;;;;;;13.00;5.30;;;;;;;22.17;78.53;100052.46;219781;1267;138819;-86
2023/06/26 20:33:34;;;;;;;10.10;5.30;;;;;;;22.04;79.04;100043.31;219504;1267;141454;-88
2023/06/26 20:38:35;;;;;;;9.40;5.30;;;;;;;21.94;79.27;100028.43;219998;1264;139021;-87
2023/06/26 20:43:35;;;;;;;9.50;5.20;;;;;;;21.88;80.31;100038.63;219680;1263;141370;-86
2023/06/26 20:48:36;;;;;;;9.50;5.50;;;;;;;21.81;80.66;100048.98;220011;1264;138665;-86
2023/06/26 20:53:37;;;;;;;9.40;5.00;;;;;;;21.76;81.04;100047.20;219339;1265;142006;-85
2023/06/26 20:58:37;;;;;;;9.80;5.20;;;;;;;21.69;80.60;100054.99;219805;1265;140449;-84
2023/06/26 21:03:38;;;;;;;8.00;4.60;;;;;;;21.65;81.27;100050.02;219531;1265;141022;-86
2023/06/26 21:08:38;;;;;;;12.70;6.60;;;;;;;21.57;81.01;100036.41;219986;1264;139868;-86
2023/06/26 21:13:39;;;;;;;10.60;6.30;;;;;;;21.51;81.91;100040.73;219542;1264;141169;-86
2023/06/26 21:18:39;;;;;;;10.10;5.70;;;;;;;21.46;82.18;100042.30;220389;1264;139055;-86
2023/06/26 21:23:39;;;;;;;8.90;5.70;;;;;;;21.39;83.39;100044.02;219556;1265;143262;-86
2023/06/26 21:28:40;;;;;;;12.30;7.20;;;;;;;21.33;84.40;100038.89;220197;1267;138886;-86
2023/06/26 21:33:41;;;;;;;11.50;6.90;;;;;;;21.27;84.96;100040.34;219681;1265;142869;-86
2023/06/26 21:38:41;;;;;;;9.10;5.90;;;;;;;21.18;85.66;100027.10;219873;1266;139972;-86
2023/06/26 21:43:41;;;;;;;11.10;6.30;;;;;;;21.13;85.98;100027.28;219489;1265;141179;-86
2023/06/26 21:48:43;;;;;;;13.10;7.60;;;;;;;21.06;86.64;100043.78;219798;1265;138830;-86
2023/06/26 21:53:43;;;;;;;12.40;7.90;;;;;;;20.98;88.01;100043.83;219387;1264;141945;-85
2023/06/26 21:58:44;;;;;;;11.00;7.80;;;;;;;20.91;88.70;100031.64;219621;1266;139193;-86
2023/06/26 22:03:44;;;;;;;11.60;7.70;;;;;;;20.84;89.56;100048.42;219250;1264;141024;-86
2023/06/26 22:08:45;;;;;;;11.60;8.20;;;;;;;20.76;89.98;100051.20;219732;1267;139580;-85
2023/06/26 22:13:45;;;;;;;12.30;7.80;;;;;;;20.71;90.25;100056.16;219217;1265;140787;-86
2023/06/26 22:18:45;;;;;;;11.70;8.10;;;;;;;20.69;91.08;100060.63;219698;1263;139076;-86
2023/06/26 22:23:46;;;;;;;12.30;7.50;;;;;;;20.67;91.56;100054.23;219262;1264;141893;-86
2023/06/26 22:28:46;;;;;;;11.50;7.60;;;;;;;20.65;91.58;100057.66;219814;1266;139798;-86
2023/06/26 22:33:47;;;;;;;10.90;7.00;;;;;;;20.64;92.10;100065.52;219366;1267;140687;-86
2023/06/26 22:38:47;;;;;;;17.30;9.10;;;;;;;20.61;92.68;100066.02;219604;1268;139119;-86
2023/06/26 22:43:47;;;;;;;14.70;8.50;;;;;;;20.55;93.33;100060.48;219230;1266;141865;-86
2023/06/26 22:48:48;;;;;;;12.30;8.40;;;;;;;20.53;93.57;100062.65;219657;1264;140439;-89